ADDS METAR Data INFO
IDs: Format: Raw Decoded Include TAF

Data at: 1546 UTC 12 Dec 2017

KSRQ 121453Z 17004KT 10SM CLR 18/11 A3006 RMK AO2 SLP178 T01830111 58001
KSRQ 121353Z 13005KT 10SM SCT048 BKN055 13/09 A3006 RMK AO2 SLP179 T01330089
KSRQ 121253Z 12004KT 10SM BKN050 11/07 A3006 RMK AO2 SLP179 T01110067
KSRQ 121153Z 15007KT 10SM FEW047 09/06 A3006 RMK AO2 SLP179 T00940061 10100 20072 55007
KSRQ 121053Z 15007KT 10SM BKN044 09/07 A3006 RMK AO2 SLP178 T00940072
KSRQ 120953Z AUTO 14005KT 10SM FEW041 08/07 A3008 RMK AO2 SLP184 T00830067
KSRQ 120853Z AUTO 11004KT 10SM BKN035 09/07 A3009 RMK AO2 SLP187 T00890067 58012
KSRQ 120753Z AUTO 12004KT 10SM FEW030 SCT035 09/06 A3010 RMK AO2 SLP191 T00890061
KSRQ 120653Z AUTO 13003KT 10SM CLR 09/06 A3011 RMK AO2 SLP194 T00890061
KSRQ 120553Z AUTO 13004KT 10SM CLR 08/07 A3012 RMK AO2 SLP198 T00780067 10122 20072 58018
KSRQ 120453Z 00000KT 10SM CLR 07/07 A3015 RMK AO2 SLP208 T00720067 401780044
KSRQ 120353Z 00000KT 10SM CLR 08/07 A3016 RMK AO2 SLP213 T00780067
KSRQ 120253Z 00000KT 10SM CLR 09/07 A3017 RMK AO2 SLP216 T00890072 58002
KSRQ 120153Z 00000KT 10SM CLR 09/08 A3018 RMK AO2 SLP219 T00940078
KSRQ 120053Z 00000KT 10SM CLR 10/08 A3019 RMK AO2 SLP221 T01000078
KSRQ 112353Z 33003KT 10SM CLR 12/08 A3018 RMK AO2 SLP218 T01170083 10178 20117 50003
KSRQ 112253Z AUTO 00000KT 10SM CLR 13/08 A3018 RMK AO2 SLP219 T01330078
KSRQ 112153Z AUTO 31007KT 10SM CLR 16/06 A3018 RMK AO2 SLP218 T01560061
KSRQ 112053Z AUTO 33007KT 10SM CLR 17/03 A3017 RMK AO2 SLP215 T01720033 56017
KSRQ 111953Z AUTO 32009KT 10SM CLR 17/04 A3018 RMK AO2 SLP219 T01720039
KSRQ 111853Z 33006KT 10SM CLR 17/04 A3020 RMK AO2 SLP225 T01720044
KSRQ 111753Z 02006KT 10SM CLR 17/04 A3022 RMK AO2 SLP232 T01670044 10167 20056 58027
KSRQ 111653Z 05005KT 10SM CLR 16/04 A3026 RMK AO2 SLP245 T01560044
KSRQ 111553Z 05007KT 10SM CLR 14/03 A3028 RMK AO2 SLP254 T01390033
KSRQ 111453Z 05006KT 10SM CLR 12/02 A3030 RMK AO2 SLP259 T01170022 51006
KSRQ 111353Z 04005KT 10SM CLR 10/03 A3030 RMK AO2 SLP258 T01000033
KSRQ 111253Z 04006KT 10SM CLR 07/03 A3029 RMK AO2 SLP256 T00720033
KSRQ 111153Z 06004KT 10SM CLR 06/03 A3028 RMK AO2 SLP253 T00610033 10067 20044 53003
KSRQ 111053Z 06006KT 10SM CLR 06/04 A3028 RMK AO2 SLP252 T00560044
KSRQ 110953Z AUTO 11003KT 10SM CLR 05/04 A3027 RMK AO2 SLP249 T00500039
KSRQ 110853Z AUTO 00000KT 10SM CLR 06/04 A3027 RMK AO2 SLP250 T00560039 56008
KSRQ 110753Z AUTO 10004KT 10SM CLR 06/04 A3027 RMK AO2 SLP250 T00610044
KSRQ 110653Z AUTO 10003KT 10SM CLR 06/04 A3028 RMK AO2 SLP253 T00610044
KSRQ 110553Z AUTO 09003KT 10SM CLR 06/04 A3029 RMK AO2 SLP258 T00610044 10100 20050 58005
KSRQ 110453Z AUTO 00000KT 10SM CLR 06/04 A3030 RMK AO2 SLP260 T00610039 401500050
KSRQ 110353Z AUTO 10003KT 10SM CLR 07/04 A3032 RMK AO2 SLP265 T00720044